Terminal Aerodrome Forecast
Issued by NWS

Home | Current Version | Previous Version | Text Only | Print | Product List | Glossary On
Versions: 1 2 3 4 5 6 7 8 9 10 11 12 13 14 15 16 17 18 19 20
056
FTUS44 KTSA 291720
TAFBVO
TAF
KBVO 291720Z 2918/3018 30004KT P6SM FEW250
     FM300300 00000KT P6SM SCT250
     FM301500 21006KT P6SM BKN250=

USA.gov is the U.S. government's official web portal to all federal, state and local government web resources and services.